Time;durP1;ratioP1;P1;durP2;ratioP2;P2;SDS_P1;SDS_P2;PMS_P1;PMS_P2;Temp;Humidity;BMP_temperature;BMP_pressure;BME280_temperature;BME280_humidity;BME280_pressure;Samples;Min_cycle;Max_cycle;Signal;HPM_P1;HPM_P2
2022/04/02 00:01:00;;;;;;;13.52;9.40;;;2.40;99.90;;;;;;4976398;28;20496;-60
2022/04/02 00:03:26;;;;;;;23.58;21.10;;;2.40;99.90;;;;;;4975048;28;20118;-60
2022/04/02 00:05:52;;;;;;;21.52;17.25;;;2.30;99.90;;;;;;4975298;28;20493;-60
2022/04/02 00:08:18;;;;;;;22.33;19.17;;;2.30;99.90;;;;;;4975584;28;20042;-60
2022/04/02 00:10:44;;;;;;;31.52;27.38;;;2.20;99.90;;;;;;4975291;28;20093;-60
2022/04/02 00:13:09;;;;;;;15.27;13.27;;;2.20;99.90;;;;;;4975789;28;20190;-60
2022/04/02 00:15:35;;;;;;;14.98;10.18;;;2.30;99.90;;;;;;4975282;28;20031;-60
2022/04/02 00:18:01;;;;;;;37.78;33.67;;;2.40;99.90;;;;;;4974943;28;20488;-60
2022/04/02 00:20:26;;;;;;;17.58;14.15;;;2.30;99.90;;;;;;4974591;28;20019;-61
2022/04/02 00:25:37;;;;;;;25.13;22.40;;;2.40;99.90;;;;;;4975479;28;20054;-60
2022/04/02 00:28:03;;;;;;;15.30;8.30;;;2.30;99.90;;;;;;4975294;28;20066;-60
2022/04/02 00:30:29;;;;;;;13.50;8.63;;;2.30;99.90;;;;;;4975199;28;20056;-60
2022/04/02 00:32:55;;;;;;;15.80;12.52;;;2.40;99.90;;;;;;4974922;28;20503;-60
2022/04/02 00:35:21;;;;;;;10.85;4.72;;;2.40;99.90;;;;;;4974259;28;20065;-60
2022/04/02 00:37:46;;;;;;;11.27;6.35;;;2.30;99.90;;;;;;4974859;28;20030;-60
2022/04/02 00:40:12;;;;;;;19.95;15.65;;;2.40;99.90;;;;;;4975415;28;20034;-60
2022/04/02 00:42:38;;;;;;;18.08;13.50;;;2.30;99.90;;;;;;4974344;28;20059;-60
2022/04/02 00:45:04;;;;;;;12.80;8.00;;;2.40;99.90;;;;;;4974964;28;20093;-60
2022/04/02 00:47:30;;;;;;;14.20;9.07;;;2.30;99.90;;;;;;4974835;28;20097;-60
2022/04/02 00:49:57;;;;;;;11.80;8.30;;;2.40;99.90;;;;;;4974321;28;20081;-60
2022/04/02 00:52:25;;;;;;;12.25;4.90;;;2.40;99.90;;;;;;4974961;28;20549;-60
2022/04/02 00:54:52;;;;;;;9.25;4.28;;;2.40;99.90;;;;;;4974642;28;20035;-60
2022/04/02 00:57:19;;;;;;;11.30;2.83;;;2.60;99.90;;;;;;4974796;28;20031;-60
2022/04/02 00:59:45;;;;;;;15.68;4.93;;;2.70;99.90;;;;;;4974336;28;20101;-60
2022/04/02 01:02:12;;;;;;;11.93;2.97;;;2.60;99.90;;;;;;4974074;28;20033;-60
2022/04/02 01:04:39;;;;;;;13.93;5.65;;;2.70;99.90;;;;;;4974852;28;20035;-60
2022/04/02 01:07:06;;;;;;;10.05;6.20;;;2.80;99.90;;;;;;4974785;28;20034;-60
2022/04/02 01:09:31;;;;;;;17.17;14.23;;;2.80;99.90;;;;;;4973734;28;20553;-60
2022/04/02 01:11:57;;;;;;;11.65;4.82;;;2.90;99.90;;;;;;4973974;28;20034;-60
2022/04/02 01:14:23;;;;;;;12.75;3.92;;;2.90;99.90;;;;;;4974101;28;20106;-60
2022/04/02 01:16:50;;;;;;;10.05;4.35;;;2.90;99.90;;;;;;4973964;28;20464;-61
2022/04/02 01:19:16;;;;;;;7.07;2.53;;;2.90;99.90;;;;;;4974998;28;20113;-60
2022/04/02 01:21:48;;;;;;;10.65;3.85;;;3.00;99.90;;;;;;4974038;28;20031;-60
2022/04/02 01:24:14;;;;;;;7.13;2.92;;;3.10;99.90;;;;;;4972869;28;20475;-61
2022/04/02 01:26:40;;;;;;;8.68;3.67;;;3.10;99.90;;;;;;4974143;28;20046;-60
2022/04/02 01:29:06;;;;;;;9.45;2.90;;;3.10;99.90;;;;;;4973989;28;20403;-60
2022/04/02 01:31:33;;;;;;;11.55;2.97;;;3.10;99.90;;;;;;4973704;28;20392;-60
2022/04/02 01:33:59;;;;;;;10.38;3.08;;;3.00;99.90;;;;;;4974028;28;20023;-61
2022/04/02 01:36:25;;;;;;;7.60;2.63;;;3.00;99.90;;;;;;4973621;28;20424;-60
2022/04/02 01:38:51;;;;;;;7.47;3.00;;;3.00;99.90;;;;;;4974021;28;20039;-60
2022/04/02 01:41:18;;;;;;;9.88;3.38;;;2.90;99.90;;;;;;4973299;28;20496;-61
2022/04/02 01:43:44;;;;;;;9.68;2.72;;;2.80;99.90;;;;;;4974057;28;20034;-60
2022/04/02 01:46:11;;;;;;;8.52;2.50;;;2.70;99.90;;;;;;4973720;28;20085;-60
2022/04/02 01:48:37;;;;;;;11.45;2.88;;;2.70;99.90;;;;;;4973533;28;20081;-60
2022/04/02 01:51:03;;;;;;;9.07;3.17;;;2.70;99.90;;;;;;4973820;28;20035;-60
2022/04/02 01:53:30;;;;;;;8.52;3.00;;;2.70;99.90;;;;;;4973437;28;20035;-60
2022/04/02 01:55:56;;;;;;;11.45;4.18;;;2.80;99.90;;;;;;4973442;28;20404;-60
2022/04/02 01:58:22;;;;;;;9.98;3.25;;;2.80;99.90;;;;;;4973784;28;20031;-60
2022/04/02 02:00:48;;;;;;;10.35;3.03;;;2.80;99.90;;;;;;4973257;28;20399;-60
2022/04/02 02:03:13;;;;;;;29.45;11.82;;;2.80;99.90;;;;;;4972727;28;20030;-60
2022/04/02 02:05:40;;;;;;;11.45;4.05;;;2.80;99.90;;;;;;4973512;28;20250;-60
2022/04/02 02:08:06;;;;;;;32.30;13.60;;;2.70;99.90;;;;;;4973203;28;20105;-60
2022/04/02 02:10:32;;;;;;;50.67;21.35;;;2.70;99.90;;;;;;4973202;28;20033;-60
2022/04/02 02:12:59;;;;;;;15.10;6.53;;;2.90;99.90;;;;;;4973529;28;20031;-60
2022/04/02 02:15:26;;;;;;;15.52;6.22;;;2.80;99.90;;;;;;4972669;28;20102;-60
2022/04/02 02:17:53;;;;;;;40.75;17.38;;;2.80;99.90;;;;;;4973121;28;20508;-60
2022/04/02 02:20:20;;;;;;;12.80;4.68;;;2.70;99.90;;;;;;4972305;28;20506;-61
2022/04/02 02:22:47;;;;;;;10.15;4.22;;;2.70;99.90;;;;;;4972866;28;20089;-60
2022/04/02 02:25:16;;;;;;;10.80;3.47;;;2.80;99.90;;;;;;4973516;28;20023;-60
2022/04/02 02:27:44;;;;;;;9.20;3.00;;;2.70;99.90;;;;;;4972667;28;20049;-60
2022/04/02 02:30:12;;;;;;;10.65;2.80;;;2.70;99.90;;;;;;4972473;28;20033;-61
2022/04/02 02:32:39;;;;;;;15.70;8.60;;;2.80;99.90;;;;;;4973075;28;20027;-60
2022/04/02 02:38:08;;;;;;;18.10;8.25;;;2.70;99.90;;;;;;4957805;28;20069;-60
2022/04/02 02:40:35;;;;;;;13.15;5.07;;;2.70;99.90;;;;;;4970916;28;20041;-60
2022/04/02 02:43:01;;;;;;;12.27;5.00;;;2.70;99.90;;;;;;4973024;28;20035;-60
2022/04/02 02:45:27;;;;;;;19.50;11.43;;;2.60;99.90;;;;;;4972294;28;20033;-60
2022/04/02 02:47:54;;;;;;;9.38;4.57;;;2.60;99.90;;;;;;4972828;28;20046;-60
2022/04/02 02:50:20;;;;;;;9.23;3.10;;;2.70;99.90;;;;;;4972638;28;20027;-60
2022/04/02 02:52:46;;;;;;;12.05;4.20;;;2.60;99.90;;;;;;4972468;28;20031;-61
2022/04/02 02:55:12;;;;;;;10.02;3.08;;;2.50;99.90;;;;;;4973092;28;20081;-60
2022/04/02 02:57:39;;;;;;;10.82;2.88;;;2.50;99.90;;;;;;4972404;28;20046;-60
2022/04/02 03:00:07;;;;;;;7.03;3.10;;;2.40;99.90;;;;;;4972382;28;20039;-60
2022/04/02 03:02:33;;;;;;;10.27;5.18;;;2.50;99.90;;;;;;4972269;28;20038;-60
2022/04/02 03:04:59;;;;;;;12.45;4.97;;;2.60;99.90;;;;;;4972613;28;20030;-60
2022/04/02 03:07:25;;;;;;;9.73;3.00;;;2.50;99.90;;;;;;4972643;28;20106;-60
2022/04/02 03:09:51;;;;;;;10.25;3.25;;;2.40;99.90;;;;;;4972592;28;20117;-61
2022/04/02 03:12:17;;;;;;;10.60;5.00;;;2.30;99.90;;;;;;4972697;28;20102;-61
2022/04/02 03:14:43;;;;;;;10.73;3.28;;;2.20;99.90;;;;;;4972131;28;20031;-60
2022/04/02 03:17:09;;;;;;;9.13;2.75;;;2.10;99.90;;;;;;4972230;28;20106;-60
2022/04/02 03:19:35;;;;;;;7.03;2.92;;;2.20;99.90;;;;;;4972658;28;20113;-60
2022/04/02 03:22:01;;;;;;;8.38;3.50;;;2.10;99.90;;;;;;4972580;28;20101;-60
2022/04/02 03:24:27;;;;;;;13.25;4.82;;;2.10;99.90;;;;;;4972112;28;20616;-60
2022/04/02 03:26:53;;;;;;;10.35;4.72;;;2.00;99.90;;;;;;4972373;28;20030;-60
2022/04/02 03:29:20;;;;;;;12.45;5.55;;;1.80;99.90;;;;;;4971839;28;20027;-60
2022/04/02 03:31:47;;;;;;;12.98;5.88;;;2.00;99.90;;;;;;4974451;28;20034;-61
2022/04/02 03:34:12;;;;;;;11.70;6.50;;;1.80;99.90;;;;;;4976659;28;20067;-60
2022/04/02 03:36:38;;;;;;;9.05;2.85;;;1.70;99.90;;;;;;4955096;29;20043;-61
2022/04/02 03:39:04;;;;;;;10.70;2.92;;;1.60;99.90;;;;;;4970070;28;20047;-60
2022/04/02 03:41:30;;;;;;;9.88;3.08;;;1.60;99.90;;;;;;4974543;28;20101;-60
2022/04/02 03:43:57;;;;;;;8.95;3.30;;;1.60;99.90;;;;;;4975616;28;20416;-60
2022/04/02 03:49:07;;;;;;;11.18;4.80;;;1.60;99.90;;;;;;4975373;28;20392;-60
2022/04/02 03:51:33;;;;;;;9.30;3.63;;;1.80;99.90;;;;;;4975520;28;20035;-60
2022/04/02 03:53:59;;;;;;;6.57;2.67;;;1.80;99.90;;;;;;4975469;28;20036;-60
2022/04/02 03:56:26;;;;;;;7.72;3.00;;;1.90;99.90;;;;;;4975102;28;20037;-61
2022/04/02 03:58:51;;;;;;;7.28;3.08;;;1.90;99.90;;;;;;4975618;28;20062;-60
2022/04/02 04:01:17;;;;;;;8.93;4.43;;;1.90;99.90;;;;;;4976349;28;20454;-60
2022/04/02 04:03:43;;;;;;;8.77;4.22;;;2.00;99.90;;;;;;4975572;28;20030;-61
2022/04/02 04:06:09;;;;;;;8.30;3.13;;;1.90;99.90;;;;;;4975250;28;20538;-60
2022/04/02 04:08:39;;;;;;;11.57;3.70;;;1.90;99.90;;;;;;4975344;28;20034;-61
2022/04/02 04:11:05;;;;;;;13.30;8.05;;;1.90;99.90;;;;;;4975253;28;20559;-60
2022/04/02 04:13:30;;;;;;;9.13;4.10;;;1.80;99.90;;;;;;4976022;28;20118;-60
2022/04/02 04:15:57;;;;;;;12.15;7.95;;;1.70;99.90;;;;;;4975634;28;20026;-60
2022/04/02 04:18:23;;;;;;;10.75;5.43;;;1.60;99.90;;;;;;4974636;28;20125;-60
2022/04/02 04:20:49;;;;;;;11.18;5.30;;;1.50;99.90;;;;;;4975265;28;20085;-60
2022/04/02 04:23:15;;;;;;;10.32;3.70;;;1.50;99.90;;;;;;4975380;28;20034;-60
2022/04/02 04:25:41;;;;;;;15.10;9.98;;;1.50;99.90;;;;;;4975041;28;20117;-60
2022/04/02 04:28:06;;;;;;;16.00;9.35;;;1.40;99.90;;;;;;4975555;28;20508;-60
2022/04/02 04:30:32;;;;;;;9.45;5.00;;;1.40;99.90;;;;;;4975209;28;20109;-60
2022/04/02 04:32:58;;;;;;;11.85;6.65;;;1.30;99.90;;;;;;4975075;28;20121;-60
2022/04/02 04:35:25;;;;;;;13.23;7.53;;;1.40;99.90;;;;;;4974664;28;20050;-60
2022/04/02 04:37:51;;;;;;;37.97;29.65;;;1.40;99.90;;;;;;4974745;28;20038;-61
2022/04/02 04:40:18;;;;;;;21.35;13.98;;;1.40;99.90;;;;;;4971467;28;20491;-60
2022/04/02 04:42:43;;;;;;;50.92;40.22;;;1.40;99.90;;;;;;4973706;28;20030;-60
2022/04/02 04:45:09;;;;;;;12.65;6.85;;;1.40;99.90;;;;;;4974868;28;20034;-60
2022/04/02 04:47:35;;;;;;;42.72;33.10;;;1.30;99.90;;;;;;4975202;28;20022;-60
2022/04/02 04:50:02;;;;;;;25.27;15.90;;;1.20;99.90;;;;;;4974684;28;20035;-60
2022/04/02 04:52:27;;;;;;;13.35;5.93;;;1.20;99.90;;;;;;4974822;28;20030;-60
2022/04/02 04:54:53;;;;;;;13.35;6.85;;;1.30;99.90;;;;;;4973779;28;20035;-60
2022/04/02 04:57:19;;;;;;;18.95;9.52;;;1.20;99.90;;;;;;4974313;28;20110;-60
2022/04/02 04:59:44;;;;;;;35.05;25.50;;;1.20;99.90;;;;;;4974407;28;20031;-60
2022/04/02 05:02:12;;;;;;;16.58;9.68;;;1.20;99.90;;;;;;4974572;28;20027;-60
2022/04/02 05:04:38;;;;;;;26.10;18.20;;;1.10;99.90;;;;;;4974609;28;20027;-60
2022/04/02 05:07:04;;;;;;;40.03;29.20;;;1.00;99.90;;;;;;4974401;28;20023;-60
2022/04/02 05:09:30;;;;;;;20.27;15.75;;;1.00;99.90;;;;;;4973205;28;20125;-60
2022/04/02 05:11:57;;;;;;;17.73;8.90;;;0.90;99.90;;;;;;4974137;28;20106;-60
2022/04/02 05:14:23;;;;;;;13.00;7.05;;;1.00;99.90;;;;;;4974440;28;20033;-60
2022/04/02 05:16:51;;;;;;;12.27;5.78;;;1.10;99.90;;;;;;4958106;28;20034;-59
2022/04/02 05:19:17;;;;;;;12.98;5.25;;;1.10;99.90;;;;;;4973876;28;20069;-60
2022/04/02 05:21:42;;;;;;;16.05;5.35;;;1.20;99.90;;;;;;4973528;28;20536;-58
2022/04/02 05:24:08;;;;;;;14.23;7.28;;;1.20;99.90;;;;;;4973732;28;20027;-60
2022/04/02 05:26:34;;;;;;;11.52;4.43;;;1.10;99.90;;;;;;4971853;28;20093;-59
2022/04/02 05:28:59;;;;;;;13.27;8.05;;;1.20;99.90;;;;;;4974181;28;20030;-60
2022/04/02 05:31:25;;;;;;;8.75;3.40;;;1.20;99.90;;;;;;4974078;28;20553;-60
2022/04/02 05:33:52;;;;;;;12.73;4.25;;;1.20;99.90;;;;;;4974082;28;20046;-59
2022/04/02 05:36:17;;;;;;;24.45;9.63;;;1.20;99.90;;;;;;4973526;28;20046;-60
2022/04/02 05:38:43;;;;;;;73.15;39.47;;;1.30;99.90;;;;;;4973598;28;20038;-59
2022/04/02 05:41:09;;;;;;;21.85;10.07;;;1.20;99.90;;;;;;4973514;28;20023;-62
2022/04/02 05:43:35;;;;;;;22.00;11.55;;;1.30;99.90;;;;;;4973897;28;20019;-60
2022/04/02 05:46:00;;;;;;;19.90;8.90;;;1.30;99.90;;;;;;4973570;28;20395;-58
2022/04/02 05:48:29;;;;;;;12.95;5.57;;;1.20;99.90;;;;;;4973639;28;20038;-59
2022/04/02 05:50:55;;;;;;;13.32;4.72;;;1.20;99.90;;;;;;4973483;28;20408;-59
2022/04/02 05:53:21;;;;;;;11.77;5.38;;;1.20;99.90;;;;;;4972978;28;20031;-59
2022/04/02 05:55:47;;;;;;;10.85;4.05;;;1.30;99.90;;;;;;4972965;28;20101;-62
2022/04/02 05:58:13;;;;;;;8.43;3.45;;;1.30;99.90;;;;;;4973567;28;20158;-60
2022/04/02 06:00:40;;;;;;;11.68;4.25;;;1.30;99.90;;;;;;4972790;28;20125;-59
2022/04/02 06:03:06;;;;;;;12.65;3.30;;;1.50;99.90;;;;;;4973562;28;20030;-61
2022/04/02 06:05:32;;;;;;;11.02;4.70;;;1.80;99.90;;;;;;4973064;28;20110;-58
2022/04/02 06:07:58;;;;;;;10.95;2.70;;;2.10;99.90;;;;;;4972584;28;20031;-58
2022/04/02 06:10:24;;;;;;;12.27;5.28;;;2.70;99.90;;;;;;4973622;28;20044;-59
2022/04/02 06:12:51;;;;;;;10.48;6.07;;;3.70;99.90;;;;;;4972872;28;20034;-59
2022/04/02 06:15:18;;;;;;;10.90;5.28;;;4.60;99.90;;;;;;4972859;28;20035;-60
2022/04/02 06:17:44;;;;;;;27.85;24.58;;;5.20;99.90;;;;;;4972809;28;20574;-59
2022/04/02 06:20:10;;;;;;;13.55;8.23;;;5.90;99.90;;;;;;4973273;28;20054;-59
2022/04/02 06:22:36;;;;;;;11.35;6.68;;;5.80;99.90;;;;;;4972621;28;20488;-59
2022/04/02 06:25:03;;;;;;;15.20;6.05;;;6.60;99.90;;;;;;4971372;28;20027;-60
2022/04/02 06:27:29;;;;;;;11.85;8.18;;;7.20;99.90;;;;;;4971492;28;20023;-60
2022/04/02 06:29:57;;;;;;;11.38;5.07;;;8.00;99.90;;;;;;4972504;28;20030;-59
2022/04/02 06:32:23;;;;;;;12.88;8.80;;;8.50;99.90;;;;;;4972994;28;20110;-60
2022/04/02 06:34:49;;;;;;;9.63;5.20;;;8.40;99.90;;;;;;4972467;28;20051;-60
2022/04/02 06:37:15;;;;;;;13.15;3.50;;;8.90;99.90;;;;;;4972692;28;20034;-60
2022/04/02 06:39:41;;;;;;;7.70;2.70;;;9.60;99.90;;;;;;4972261;28;20039;-61
2022/04/02 06:42:07;;;;;;;7.07;2.25;;;9.50;99.90;;;;;;4972505;28;20081;-61
2022/04/02 06:44:33;;;;;;;7.72;2.55;;;10.60;97.80;;;;;;4972208;28;20057;-61
2022/04/02 06:47:00;;;;;;;5.60;2.20;;;11.60;96.80;;;;;;4972554;28;20022;-61
2022/04/02 06:49:25;;;;;;;5.78;2.63;;;12.10;95.40;;;;;;4972523;28;20042;-61
2022/04/02 06:51:51;;;;;;;24.48;12.27;;;12.50;95.10;;;;;;4972424;28;20427;-61
2022/04/02 06:54:17;;;;;;;177.45;104.75;;;12.50;94.40;;;;;;4972628;28;20085;-61
2022/04/02 06:56:44;;;;;;;142.07;80.00;;;13.10;92.80;;;;;;4972284;28;20034;-61
2022/04/02 06:59:10;;;;;;;643.80;407.98;;;14.10;91.40;;;;;;4972219;28;20393;-61
2022/04/02 07:01:35;;;;;;;42.20;24.52;;;14.50;90.50;;;;;;4972471;28;20034;-61
2022/04/02 07:04:01;;;;;;;402.35;276.52;;;13.50;90.90;;;;;;4970638;28;20026;-61
2022/04/02 07:06:27;;;;;;;294.35;212.25;;;14.30;90.20;;;;;;4975977;28;20499;-61
2022/04/02 07:08:53;;;;;;;100.95;63.13;;;12.90;90.70;;;;;;4978689;28;20135;-62
2022/04/02 07:11:18;;;;;;;9.23;3.25;;;13.80;90.20;;;;;;4978814;28;20023;-61
2022/04/02 07:13:44;;;;;;;6.95;2.67;;;12.50;91.10;;;;;;4978800;28;20042;-61
2022/04/02 07:16:10;;;;;;;6.22;2.83;;;13.70;90.10;;;;;;4979296;28;20388;-62
2022/04/02 07:18:42;;;;;;;9.27;5.75;;;16.10;84.00;;;;;;4978754;28;20491;-61
2022/04/02 07:21:11;;;;;;;7.20;3.55;;;16.10;83.40;;;;;;4978032;28;20031;-61
2022/04/02 07:23:40;;;;;;;15.48;7.70;;;16.10;82.00;;;;;;4978723;28;20027;-61
2022/04/02 07:26:06;;;;;;;10.48;4.93;;;15.60;81.70;;;;;;4978848;28;20030;-62
2022/04/02 07:28:32;;;;;;;7.15;3.05;;;15.20;83.30;;;;;;4978734;28;20396;-62
2022/04/02 07:30:58;;;;;;;174.68;108.90;;;15.10;86.00;;;;;;4978894;28;20041;-61
2022/04/02 07:33:24;;;;;;;549.28;402.08;;;16.20;82.20;;;;;;4978512;28;20547;-61
2022/04/02 07:36:08;;;;;;;87.22;64.68;;;15.70;83.20;;;;;;4977979;28;20047;-61
2022/04/02 07:38:40;;;;;;;5.13;2.70;;;14.50;82.50;;;;;;4978512;28;20043;-61
2022/04/02 07:41:26;;;;;;;57.72;45.95;;;16.10;78.20;;;;;;4978638;28;20073;-61
2022/04/02 07:43:57;;;;;;;158.55;132.35;;;16.80;80.00;;;;;;4963294;28;20030;-61
2022/04/02 07:46:28;;;;;;;18.33;11.05;;;18.00;76.70;;;;;;4975249;28;20106;-61
2022/04/02 07:48:56;;;;;;;17.23;9.13;;;17.80;75.50;;;;;;4977471;28;20062;-62
2022/04/02 07:51:26;;;;;;;167.73;139.18;;;16.40;79.10;;;;;;4978290;28;20042;-61
2022/04/02 07:53:55;;;;;;;21.60;16.23;;;16.00;81.80;;;;;;4978403;28;20054;-61
2022/04/02 07:56:30;;;;;;;43.22;34.58;;;15.70;78.40;;;;;;4978200;28;20042;-61
2022/04/02 07:59:11;;;;;;;9.50;2.95;;;17.60;77.80;;;;;;4963369;28;20047;-63
2022/04/02 08:01:39;;;;;;;10.02;4.60;;;17.20;74.10;;;;;;4978060;28;20441;-62
2022/04/02 08:04:05;;;;;;;6.78;2.70;;;15.00;80.00;;;;;;4978346;28;20401;-61
2022/04/02 08:06:37;;;;;;;7.20;2.70;;;15.40;74.80;;;;;;4978052;28;20042;-61
2022/04/02 08:09:03;;;;;;;14.60;7.63;;;13.50;78.10;;;;;;4978139;28;20403;-61
2022/04/02 08:11:29;;;;;;;16.38;12.15;;;14.60;81.10;;;;;;4978232;28;20510;-61
2022/04/02 08:13:57;;;;;;;10.75;4.57;;;16.10;77.40;;;;;;4978245;28;20077;-61
2022/04/02 08:16:23;;;;;;;10.10;5.90;;;18.40;71.20;;;;;;4978758;28;20027;-61
2022/04/02 08:18:48;;;;;;;48.22;41.33;;;17.90;74.20;;;;;;4975129;28;20045;-61
2022/04/02 08:21:15;;;;;;;28.60;22.48;;;19.60;69.90;;;;;;4974943;28;20443;-61
2022/04/02 08:23:41;;;;;;;10.05;4.43;;;15.10;74.90;;;;;;4975102;28;20054;-61
2022/04/02 08:26:41;;;;;;;7.15;2.75;;;17.00;71.40;;;;;;4975070;28;20050;-61
2022/04/02 08:29:35;;;;;;;8.80;3.17;;;13.90;75.60;;;;;;4960467;28;20122;-61
2022/04/02 08:32:20;;;;;;;;;;;16.50;71.20;;;;;;4960923;28;20097;-61
2022/04/02 08:35:07;;;;;;;8.07;3.45;;;16.80;71.80;;;;;;4974669;28;19976;-61
2022/04/02 08:38:00;;;;;;;7.80;3.38;;;18.80;67.50;;;;;;4972682;28;20536;-61
2022/04/02 08:41:03;;;;;;;9.75;3.55;;;18.60;66.30;;;;;;4972199;28;20439;-61
2022/04/02 08:43:42;;;;;;;6.90;2.42;;;17.70;67.80;;;;;;4972342;28;20027;-61
2022/04/02 08:46:24;;;;;;;8.32;3.10;;;18.80;65.80;;;;;;4973709;28;20538;-61
2022/04/02 08:49:05;;;;;;;8.60;3.90;;;15.30;68.50;;;;;;4974547;28;20035;-61
2022/04/02 08:51:46;;;;;;;10.68;4.80;;;16.90;69.30;;;;;;4974453;28;20031;-61
2022/04/02 08:54:26;;;;;;;12.40;8.50;;;21.30;64.20;;;;;;4974451;28;20117;-61
2022/04/02 08:57:06;;;;;;;13.93;9.55;;;20.70;62.70;;;;;;4974787;28;20571;-61
2022/04/02 08:59:38;;;;;;;208.00;101.88;;;22.00;60.10;;;;;;4974179;28;20030;-61
2022/04/02 09:02:10;;;;;;;79.53;66.13;;;20.20;59.00;;;;;;4973954;28;20078;-61
2022/04/02 09:05:08;;;;;;;69.75;64.00;;;18.60;63.20;;;;;;4974843;28;20038;-62
2022/04/02 09:08:05;;;;;;;7.55;6.22;;;20.30;62.30;;;;;;4972743;28;20155;-62
2022/04/02 09:10:58;;;;;;;10.63;6.35;;;21.80;61.70;;;;;;4974729;28;20031;-62
2022/04/02 09:13:45;;;;;;;110.75;76.20;;;19.90;62.90;;;;;;4970975;28;20022;-61
2022/04/02 09:16:27;;;;;;;59.33;39.25;;;19.60;62.90;;;;;;4973647;28;20022;-61
2022/04/02 09:19:12;;;;;;;7.80;3.05;;;22.00;59.00;;;;;;4974089;28;20089;-61
2022/04/02 09:21:44;;;;;;;31.58;24.10;;;19.80;62.40;;;;;;4973742;28;20117;-61
2022/04/02 09:24:34;;;;;;;24.45;18.40;;;21.10;62.80;;;;;;4973850;28;20110;-61
2022/04/02 09:27:57;;;;;;;24.95;20.50;;;19.90;62.70;;;;;;4973753;28;20460;-61
2022/04/02 09:30:41;;;;;;;5.72;2.63;;;19.70;58.70;;;;;;4966445;28;20041;-61
2022/04/02 09:33:18;;;;;;;;;;;20.90;57.30;;;;;;4968134;28;20034;-61
2022/04/02 09:36:11;;;;;;;6.50;1.95;;;20.50;57.60;;;;;;4966972;28;19922;-61
2022/04/02 09:38:42;;;;;;;5.07;2.40;;;16.30;59.20;;;;;;4966758;28;20046;-61
2022/04/02 09:41:08;;;;;;;7.70;3.28;;;14.80;62.90;;;;;;4969265;28;20050;-61
2022/04/02 09:43:43;;;;;;;8.07;4.50;;;15.40;63.20;;;;;;4969251;28;20030;-61
2022/04/02 09:46:46;;;;;;;9.98;6.22;;;17.70;62.20;;;;;;4971428;28;20537;-61
2022/04/02 09:49:34;;;;;;;6.70;2.97;;;16.40;65.20;;;;;;4971699;28;20037;-61
2022/04/02 09:52:05;;;;;;;3.63;1.50;;;18.60;57.60;;;;;;4971634;28;20125;-61
2022/04/02 09:55:03;;;;;;;4.18;1.98;;;14.00;60.60;;;;;;4966856;28;20046;-62
2022/04/02 09:57:40;;;;;;;5.25;1.67;;;13.70;61.60;;;;;;4966592;28;20042;-61
2022/04/02 10:00:10;;;;;;;10.88;6.55;;;12.00;65.60;;;;;;4966710;28;20046;-61
2022/04/02 10:02:57;;;;;;;4.22;1.60;;;13.60;69.60;;;;;;4972953;28;20119;-61
2022/04/02 10:05:29;;;;;;;11.85;9.65;;;12.70;67.50;;;;;;4973149;28;20567;-61
2022/04/02 10:08:03;;;;;;;9.07;6.60;;;16.80;66.60;;;;;;4958180;28;20030;-61
2022/04/02 10:10:29;;;;;;;;;;;18.30;62.30;;;;;;4973716;28;20022;-61
2022/04/02 10:12:56;;;;;;;3.05;1.40;;;18.40;61.30;;;;;;4972609;28;19913;-61
2022/04/02 10:15:23;;;;;;;8.85;6.53;;;14.80;60.30;;;;;;4972806;28;20526;-61
2022/04/02 10:17:52;;;;;;;5.38;1.65;;;15.40;66.40;;;;;;4973029;28;20527;-61
2022/04/02 10:20:28;;;;;;;6.65;1.65;;;15.60;62.30;;;;;;4973194;28;20042;-61
2022/04/02 10:23:14;;;;;;;5.57;1.30;;;15.00;62.80;;;;;;4957800;28;20030;-61
2022/04/02 10:26:09;;;;;;;6.82;2.13;;;13.20;62.90;;;;;;4972594;28;20503;-61
2022/04/02 10:28:56;;;;;;;4.72;2.20;;;13.10;63.90;;;;;;4967968;28;20034;-61
2022/04/02 10:31:33;;;;;;;6.00;1.50;;;14.90;65.90;;;;;;4969657;28;20049;-62
2022/04/02 10:34:16;;;;;;;5.43;1.67;;;14.80;61.80;;;;;;4972438;28;20471;-61
2022/04/02 10:36:51;;;;;;;8.13;5.53;;;12.30;68.70;;;;;;4972570;28;20038;-61
2022/04/02 10:39:23;;;;;;;5.13;3.33;;;13.20;68.80;;;;;;4972767;28;20113;-61
2022/04/02 10:41:54;;;;;;;4.43;2.10;;;12.60;67.90;;;;;;4971706;28;20037;-61
2022/04/02 10:44:35;;;;;;;5.25;1.80;;;12.80;67.10;;;;;;4955306;28;20073;-61
2022/04/02 10:47:05;;;;;;;4.97;1.70;;;11.00;70.00;;;;;;4958364;28;20030;-61
2022/04/02 10:49:36;;;;;;;7.05;2.10;;;11.30;67.90;;;;;;4972572;28;20069;-61
2022/04/02 10:52:03;;;;;;;5.25;1.88;;;11.50;69.50;;;;;;4972904;28;20600;-61
2022/04/02 10:54:30;;;;;;;4.25;1.75;;;12.70;68.00;;;;;;4972285;28;20377;-61
2022/04/02 10:56:56;;;;;;;4.93;1.70;;;13.00;69.90;;;;;;4971908;28;20373;-61
2022/04/02 10:59:26;;;;;;;9.98;4.07;;;13.00;68.70;;;;;;4971564;28;20073;-62
2022/04/02 11:01:56;;;;;;;5.70;1.38;;;13.10;68.90;;;;;;4957217;28;20041;-62
2022/04/02 11:04:25;;;;;;;18.45;13.82;;;12.90;64.00;;;;;;4969543;28;20564;-62
2022/04/02 11:06:51;;;;;;;3.08;1.55;;;14.80;64.20;;;;;;4972030;28;20448;-61
2022/04/02 11:09:27;;;;;;;4.38;1.50;;;12.00;66.70;;;;;;4971832;28;20487;-62
2022/04/02 11:11:53;;;;;;;45.72;40.85;;;13.70;64.90;;;;;;4972034;28;20061;-61
2022/04/02 11:14:20;;;;;;;36.40;32.72;;;13.90;66.10;;;;;;4971979;28;20023;-62
2022/04/02 11:16:46;;;;;;;22.50;18.50;;;12.30;68.90;;;;;;4972214;28;20041;-62
2022/04/02 11:22:24;;;;;;;18.85;17.02;;;14.10;66.80;;;;;;4974895;28;20046;-61
2022/04/02 11:25:01;;;;;;;4.60;3.13;;;14.00;66.00;;;;;;4972674;28;20136;-61
2022/04/02 11:27:28;;;;;;;2.55;1.17;;;14.60;64.40;;;;;;4971207;28;20122;-61
2022/04/02 11:30:10;;;;;;;4.70;4.30;;;12.30;66.00;;;;;;4971339;28;20479;-62
2022/04/02 11:32:43;;;;;;;5.00;1.35;;;13.80;65.90;;;;;;4969466;28;20027;-62
2022/04/02 11:35:21;;;;;;;;;;;13.30;67.00;;;;;;4969688;28;20074;-61
2022/04/02 11:37:55;;;;;;;6.30;1.90;;;12.90;65.80;;;;;;4967223;28;19997;-61
2022/04/02 11:40:25;;;;;;;4.72;1.98;;;11.10;66.70;;;;;;4979779;28;20041;-61
2022/04/02 11:42:51;;;;;;;5.18;1.80;;;12.80;67.60;;;;;;4972500;28;20196;-60
2022/04/02 11:45:19;;;;;;;3.65;1.65;;;13.00;66.60;;;;;;4970956;28;20193;-63
2022/04/02 11:47:51;;;;;;;6.80;2.40;;;12.50;68.60;;;;;;4970911;28;20031;-64
2022/04/02 11:50:25;;;;;;;5.10;3.85;;;12.90;69.70;;;;;;4969879;28;20042;-63
2022/04/02 11:52:57;;;;;;;4.22;2.50;;;12.70;68.70;;;;;;4953908;28;20087;-61
2022/04/02 11:55:25;;;;;;;5.00;1.58;;;12.10;70.10;;;;;;4978772;28;20043;-61
2022/04/02 11:58:05;;;;;;;4.80;2.40;;;12.10;69.40;;;;;;4975199;28;20125;-61
2022/04/02 12:00:34;;;;;;;4.97;2.03;;;12.40;68.60;;;;;;4975729;28;20023;-61
2022/04/02 12:03:01;;;;;;;5.05;2.42;;;12.50;70.00;;;;;;4975289;28;20035;-61
2022/04/02 12:06:08;;;;;;;3.88;1.33;;;12.90;66.50;;;;;;4975941;28;20515;-61
2022/04/02 12:08:37;;;;;;;4.70;2.83;;;13.00;67.90;;;;;;4974921;28;20173;-60
2022/04/02 12:11:03;;;;;;;3.17;1.40;;;14.50;66.30;;;;;;4975157;28;20025;-61
2022/04/02 12:13:30;;;;;;;5.68;1.52;;;14.20;64.00;;;;;;4975627;28;20105;-61
2022/04/02 12:16:02;;;;;;;5.28;1.80;;;12.10;65.30;;;;;;4974729;28;20506;-61
2022/04/02 12:18:30;;;;;;;3.60;2.10;;;11.80;68.30;;;;;;4975546;28;20070;-61
2022/04/02 12:21:09;;;;;;;4.15;1.50;;;13.00;67.80;;;;;;4974852;28;20019;-61
2022/04/02 12:23:37;;;;;;;3.75;1.30;;;13.40;67.50;;;;;;4974788;28;20029;-61
2022/04/02 12:26:03;;;;;;;4.20;1.27;;;11.70;65.70;;;;;;4975243;28;20415;-61
2022/04/02 12:28:30;;;;;;;3.17;1.25;;;12.00;66.80;;;;;;4975618;28;20058;-61
2022/04/02 12:31:06;;;;;;;4.70;1.65;;;12.40;65.70;;;;;;4974520;28;20113;-61
2022/04/02 12:33:32;;;;;;;3.60;1.50;;;12.60;68.30;;;;;;4975057;28;20054;-61
2022/04/02 12:35:59;;;;;;;2.42;1.20;;;12.90;66.40;;;;;;4974760;28;20051;-61
2022/04/02 12:38:30;;;;;;;2.53;1.10;;;12.60;64.90;;;;;;4974327;28;20591;-61
2022/04/02 12:40:57;;;;;;;4.22;1.52;;;11.40;67.80;;;;;;4959953;28;20404;-61
2022/04/02 12:43:34;;;;;;;2.70;1.23;;;12.50;64.30;;;;;;4975215;28;20031;-61
2022/04/02 12:46:03;;;;;;;4.70;1.75;;;12.00;66.10;;;;;;4974709;28;20030;-61
2022/04/02 12:48:45;;;;;;;3.15;1.40;;;12.50;70.90;;;;;;4974433;28;20039;-61
2022/04/02 12:51:16;;;;;;;4.35;1.35;;;11.60;70.60;;;;;;4974372;28;20042;-61
2022/04/02 12:53:44;;;;;;;5.63;1.95;;;12.50;69.10;;;;;;4974623;28;20106;-60
2022/04/02 12:56:23;;;;;;;3.05;1.50;;;13.80;74.00;;;;;;4974692;28;20496;-61
2022/04/02 12:58:50;;;;;;;3.80;1.27;;;14.00;69.10;;;;;;4974497;28;20125;-61
2022/04/02 13:01:25;;;;;;;5.93;1.42;;;14.10;66.20;;;;;;4975106;28;20421;-61
2022/04/02 13:04:00;;;;;;;4.60;1.30;;;13.40;70.10;;;;;;4973698;28;20034;-61
2022/04/02 13:06:32;;;;;;;3.65;1.33;;;12.80;67.80;;;;;;4974056;28;20428;-61
2022/04/02 13:09:04;;;;;;;5.75;1.92;;;12.80;67.20;;;;;;4974010;28;20073;-61
2022/04/02 13:11:39;;;;;;;4.30;1.50;;;13.10;70.40;;;;;;4974054;28;20031;-60